createdAt,value
2017-12-16T00:00:43.418Z,20.67
2017-12-16T00:03:11.323Z,16.00
2017-12-16T00:05:39.064Z,18.27
2017-12-16T00:08:06.828Z,15.07
2017-12-16T00:10:34.564Z,18.33
2017-12-16T00:13:02.619Z,13.53
2017-12-16T00:15:30.368Z,13.40
2017-12-16T00:17:58.269Z,11.07
2017-12-16T00:20:26.072Z,13.00
2017-12-16T00:22:53.843Z,12.70
2017-12-16T00:25:21.665Z,11.20
2017-12-16T00:27:49.470Z,12.90
2017-12-16T00:30:17.285Z,12.17
2017-12-16T00:32:45.070Z,11.90
2017-12-16T00:35:12.906Z,13.50
2017-12-16T00:37:40.680Z,9.80
2017-12-16T00:40:08.532Z,11.30
2017-12-16T00:42:36.276Z,14.23
2017-12-16T00:45:04.069Z,10.43
2017-12-16T00:47:32.002Z,9.17
2017-12-16T00:49:59.733Z,10.97
2017-12-16T00:52:27.515Z,9.03
2017-12-16T00:54:55.275Z,13.93
2017-12-16T00:57:22.998Z,8.60
2017-12-16T00:59:50.813Z,9.57
2017-12-16T01:02:18.651Z,8.90
2017-12-16T01:04:46.389Z,10.20
2017-12-16T01:07:14.213Z,10.97
2017-12-16T01:09:42.027Z,12.70
2017-12-16T01:12:09.895Z,13.03
2017-12-16T01:14:37.670Z,19.30
2017-12-16T01:17:05.514Z,16.97
2017-12-16T01:19:33.366Z,16.47
2017-12-16T01:22:01.160Z,14.13
2017-12-16T01:24:28.942Z,16.17
2017-12-16T01:26:56.719Z,14.13
2017-12-16T01:29:24.502Z,16.73
2017-12-16T01:31:52.342Z,21.20
2017-12-16T01:34:31.921Z,25.03
2017-12-16T01:37:11.595Z,24.07
2017-12-16T01:39:39.407Z,21.17
2017-12-16T01:42:07.258Z,21.43
2017-12-16T01:44:35.159Z,26.87
2017-12-16T01:47:03.024Z,27.63
2017-12-16T01:49:30.770Z,25.77
2017-12-16T01:51:58.593Z,28.13
2017-12-16T01:54:26.421Z,26.07
2017-12-16T01:56:54.203Z,29.10
2017-12-16T01:59:22.101Z,27.17
2017-12-16T02:01:49.898Z,30.63
2017-12-16T02:04:17.694Z,26.50
2017-12-16T02:06:45.580Z,33.00
2017-12-16T02:09:13.368Z,31.25
2017-12-16T02:11:42.007Z,28.67
2017-12-16T02:14:09.926Z,27.83
2017-12-16T02:16:37.861Z,34.40
2017-12-16T02:19:05.701Z,27.63
2017-12-16T02:21:33.586Z,28.20
2017-12-16T02:24:01.377Z,28.10
2017-12-16T02:26:29.215Z,30.30
2017-12-16T02:28:57.186Z,31.77
2017-12-16T02:31:25.039Z,34.43
2017-12-16T02:33:52.880Z,30.00
2017-12-16T02:36:21.452Z,31.57
2017-12-16T02:38:49.328Z,30.93
2017-12-16T02:41:17.191Z,35.33
2017-12-16T02:43:45.099Z,39.30
2017-12-16T02:46:12.921Z,30.90
2017-12-16T02:48:40.803Z,33.83
2017-12-16T02:51:08.985Z,33.47
2017-12-16T02:53:36.834Z,29.83
2017-12-16T02:56:04.626Z,33.30
2017-12-16T02:58:33.546Z,34.13
2017-12-16T03:01:01.813Z,34.70
2017-12-16T03:03:29.716Z,31.13
2017-12-16T03:05:57.938Z,28.97
2017-12-16T03:08:26.838Z,36.47
2017-12-16T03:10:55.062Z,37.17
2017-12-16T03:13:22.920Z,34.13
2017-12-16T03:15:50.769Z,30.97
2017-12-16T03:18:18.733Z,30.00
2017-12-16T03:20:47.342Z,30.40
2017-12-16T03:23:15.210Z,34.83
2017-12-16T03:25:43.077Z,34.67
2017-12-16T03:28:10.941Z,31.40
2017-12-16T03:30:38.775Z,32.77
2017-12-16T03:33:07.358Z,31.93
2017-12-16T03:35:35.152Z,32.33
2017-12-16T03:38:03.008Z,32.50
2017-12-16T03:40:31.561Z,37.80
2017-12-16T03:42:59.410Z,37.57
2017-12-16T03:45:27.203Z,40.10
2017-12-16T03:47:55.056Z,39.50
2017-12-16T03:50:22.920Z,43.83
2017-12-16T03:52:50.669Z,37.43
2017-12-16T03:55:19.254Z,38.63
2017-12-16T03:57:47.073Z,45.60
2017-12-16T04:00:14.934Z,41.50
2017-12-16T04:02:42.903Z,40.40
2017-12-16T04:05:10.751Z,40.47
2017-12-16T04:07:38.612Z,41.80
2017-12-16T04:10:06.550Z,40.43
2017-12-16T04:12:34.337Z,38.80
2017-12-16T04:15:02.126Z,40.53
2017-12-16T04:17:29.903Z,40.47
2017-12-16T04:19:57.750Z,37.90
2017-12-16T04:22:25.546Z,40.20
2017-12-16T04:24:53.391Z,49.47
2017-12-16T04:27:21.268Z,35.17
2017-12-16T04:29:49.092Z,32.63
2017-12-16T04:32:16.858Z,37.83
2017-12-16T04:34:44.699Z,37.70
2017-12-16T04:37:12.557Z,38.30
2017-12-16T04:39:40.311Z,39.03
2017-12-16T04:42:08.190Z,38.07
2017-12-16T04:44:36.725Z,36.87
2017-12-16T04:47:04.621Z,34.67
2017-12-16T04:49:32.430Z,36.70
2017-12-16T04:52:00.227Z,38.50
2017-12-16T04:54:28.176Z,35.07
2017-12-16T04:56:56.080Z,42.47
2017-12-16T04:59:23.922Z,37.03
2017-12-16T05:01:52.603Z,36.70
2017-12-16T05:04:21.147Z,39.60
2017-12-16T05:06:49.026Z,43.20
2017-12-16T05:09:16.975Z,37.90
2017-12-16T05:11:44.809Z,36.80
2017-12-16T05:14:12.634Z,38.63
2017-12-16T05:16:40.549Z,35.47
2017-12-16T05:19:08.412Z,34.73
2017-12-16T05:21:36.160Z,35.70
2017-12-16T05:24:04.085Z,35.13
2017-12-16T05:26:31.869Z,33.40
2017-12-16T05:28:59.754Z,38.80
2017-12-16T05:31:27.579Z,33.10
2017-12-16T05:33:55.345Z,30.93
2017-12-16T05:36:23.125Z,35.57
2017-12-16T05:38:51.005Z,37.33
2017-12-16T05:41:18.837Z,33.60
2017-12-16T05:43:46.708Z,36.60
2017-12-16T05:46:14.488Z,35.60
2017-12-16T05:48:42.343Z,36.80
2017-12-16T05:51:10.128Z,33.33
2017-12-16T05:53:38.041Z,31.50
2017-12-16T05:56:06.065Z,35.40
2017-12-16T06:01:36.179Z,33.07
2017-12-16T06:04:04.216Z,33.13
2017-12-16T06:06:32.031Z,35.43
2017-12-16T06:08:59.971Z,34.93
2017-12-16T06:11:28.054Z,29.70
2017-12-16T06:13:56.261Z,37.87
2017-12-16T06:16:25.184Z,33.50
2017-12-16T06:18:54.484Z,38.80
2017-12-16T06:21:24.645Z,32.13
2017-12-16T06:23:53.638Z,32.40
2017-12-16T06:26:21.589Z,28.97
2017-12-16T06:28:49.395Z,32.00
2017-12-16T06:31:17.666Z,31.60
2017-12-16T06:33:45.642Z,31.53
2017-12-16T06:36:13.609Z,31.77
2017-12-16T06:38:42.502Z,33.57
2017-12-16T06:41:11.233Z,30.93
2017-12-16T06:43:39.270Z,30.00
2017-12-16T06:46:08.253Z,41.80
2017-12-16T06:48:36.096Z,29.93
2017-12-16T06:51:04.897Z,29.87
2017-12-16T06:53:32.877Z,30.97
2017-12-16T06:56:00.943Z,26.63
2017-12-16T06:58:28.906Z,29.23
2017-12-16T07:00:56.836Z,33.97
2017-12-16T07:03:24.761Z,30.87
2017-12-16T07:05:52.674Z,31.40
2017-12-16T07:08:20.569Z,29.03
2017-12-16T07:10:48.434Z,27.93
2017-12-16T07:13:16.427Z,27.87
2017-12-16T07:15:44.400Z,29.70
2017-12-16T07:18:12.210Z,28.27
2017-12-16T07:20:40.052Z,28.10
2017-12-16T07:23:08.734Z,32.10
2017-12-16T07:25:36.627Z,29.63
2017-12-16T07:28:04.620Z,30.77
2017-12-16T07:30:32.568Z,29.63
2017-12-16T07:33:00.478Z,27.13
2017-12-16T07:35:28.369Z,28.30
2017-12-16T07:37:56.394Z,28.40
2017-12-16T07:40:24.453Z,29.27
2017-12-16T07:42:52.648Z,28.43
2017-12-16T07:45:21.525Z,29.00
2017-12-16T07:47:49.389Z,29.50
2017-12-16T07:50:17.214Z,32.90
2017-12-16T07:52:48.768Z,29.10
2017-12-16T07:55:16.647Z,32.03
2017-12-16T07:57:44.461Z,33.83
2017-12-16T08:00:12.335Z,29.27
2017-12-16T08:02:40.172Z,27.27
2017-12-16T08:05:07.968Z,26.87
2017-12-16T08:07:35.899Z,27.47
2017-12-16T08:10:03.888Z,25.73
2017-12-16T08:12:31.754Z,26.10
2017-12-16T08:15:00.368Z,28.07
2017-12-16T08:17:28.749Z,29.03
2017-12-16T08:19:56.550Z,28.07
2017-12-16T08:22:24.376Z,30.77
2017-12-16T08:24:52.184Z,27.27
2017-12-16T08:27:20.066Z,24.57
2017-12-16T08:29:47.873Z,31.27
2017-12-16T08:32:15.676Z,28.77
2017-12-16T08:34:43.483Z,29.07
2017-12-16T08:37:11.372Z,26.80
2017-12-16T08:39:39.212Z,27.70
2017-12-16T08:42:07.111Z,29.53
2017-12-16T08:44:35.850Z,25.60
2017-12-16T08:47:03.693Z,28.53
2017-12-16T08:49:31.646Z,25.87
2017-12-16T08:51:59.593Z,27.57
2017-12-16T08:54:27.425Z,38.20
2017-12-16T08:56:55.231Z,24.77
2017-12-16T08:59:23.114Z,25.40
2017-12-16T09:01:51.011Z,28.17
2017-12-16T09:04:18.840Z,31.70
2017-12-16T09:06:46.816Z,36.37
2017-12-16T09:09:14.659Z,66.27
2017-12-16T09:11:42.585Z,41.00
2017-12-16T09:14:10.496Z,45.07
2017-12-16T09:16:38.331Z,47.17
2017-12-16T09:19:09.967Z,38.20
2017-12-16T09:21:37.811Z,39.63
2017-12-16T09:24:05.693Z,41.70
2017-12-16T09:26:33.744Z,33.27
2017-12-16T09:31:50.443Z,40.07
2017-12-16T09:34:21.509Z,40.13
2017-12-16T09:36:50.374Z,43.80
2017-12-16T09:39:23.908Z,46.10
2017-12-16T09:41:51.984Z,47.33
2017-12-16T09:44:23.169Z,44.27
2017-12-16T09:47:07.915Z,46.20
2017-12-16T09:49:36.649Z,46.57
2017-12-16T09:52:04.514Z,45.70
2017-12-16T09:54:32.526Z,51.07
2017-12-16T09:57:00.385Z,44.20
2017-12-16T09:59:28.591Z,42.93
2017-12-16T10:01:57.249Z,38.83
2017-12-16T10:04:25.091Z,45.53
2017-12-16T10:06:53.051Z,43.10
2017-12-16T10:09:20.933Z,44.63
2017-12-16T10:11:48.822Z,42.03
2017-12-16T10:14:16.875Z,38.97
2017-12-16T10:16:44.691Z,46.00
2017-12-16T10:19:20.735Z,44.70
2017-12-16T10:21:48.568Z,47.03
2017-12-16T10:24:16.559Z,40.23
2017-12-16T10:26:44.465Z,43.30
2017-12-16T10:29:13.071Z,42.80
2017-12-16T10:31:42.538Z,42.30
2017-12-16T10:37:18.700Z,43.77
2017-12-16T10:39:46.716Z,45.70
2017-12-16T10:42:19.221Z,41.60
2017-12-16T10:44:50.859Z,41.27
2017-12-16T10:47:18.841Z,36.43
2017-12-16T10:49:46.631Z,31.00
2017-12-16T10:52:14.477Z,31.03
2017-12-16T10:54:42.301Z,34.17
2017-12-16T10:57:10.086Z,28.90
2017-12-16T10:59:38.011Z,32.57
2017-12-16T11:02:05.890Z,27.67
2017-12-16T11:04:33.767Z,25.37
2017-12-16T11:07:01.629Z,26.93
2017-12-16T11:09:29.620Z,27.27
2017-12-16T11:11:58.204Z,28.93
2017-12-16T11:14:26.808Z,23.17
2017-12-16T11:16:54.592Z,20.40
2017-12-16T11:19:22.384Z,14.80
2017-12-16T11:21:50.255Z,12.77
2017-12-16T11:24:18.079Z,14.87
2017-12-16T11:26:46.023Z,17.53
2017-12-16T11:29:13.976Z,13.47
2017-12-16T11:31:41.913Z,13.37
2017-12-16T11:34:09.791Z,11.80
2017-12-16T11:36:37.871Z,13.80
2017-12-16T11:39:05.746Z,32.70
2017-12-16T11:41:34.304Z,10.47
2017-12-16T11:44:02.186Z,20.23
2017-12-16T11:46:30.954Z,20.00
2017-12-16T11:48:59.230Z,25.00
2017-12-16T11:51:28.951Z,23.30
2017-12-16T11:53:56.827Z,13.97
2017-12-16T11:56:24.822Z,13.77
2017-12-16T11:58:53.444Z,13.53
2017-12-16T12:01:21.478Z,15.87
2017-12-16T12:03:49.275Z,10.57
2017-12-16T12:06:17.587Z,25.27
2017-12-16T12:08:45.920Z,27.03
2017-12-16T12:11:13.821Z,19.00
2017-12-16T12:13:41.798Z,15.47
2017-12-16T12:16:09.759Z,17.33
2017-12-16T12:18:37.797Z,20.50
2017-12-16T12:21:05.656Z,11.60
2017-12-16T12:23:33.445Z,18.97
2017-12-16T12:26:01.601Z,11.33
2017-12-16T12:28:29.512Z,12.77
2017-12-16T12:30:57.308Z,9.90
2017-12-16T12:33:25.908Z,9.47
2017-12-16T12:35:53.753Z,10.23
2017-12-16T12:38:22.551Z,8.30
2017-12-16T12:40:51.173Z,12.20
2017-12-16T12:43:19.019Z,13.87
2017-12-16T12:45:46.795Z,11.20
2017-12-16T12:48:14.746Z,9.80
2017-12-16T12:50:42.544Z,6.67
2017-12-16T12:53:10.382Z,7.90
2017-12-16T12:55:39.003Z,8.47
2017-12-16T12:58:06.867Z,10.00
2017-12-16T13:00:34.792Z,10.33
2017-12-16T13:03:02.916Z,10.03
2017-12-16T13:05:30.773Z,15.50
2017-12-16T13:07:58.639Z,7.90
2017-12-16T13:10:26.710Z,11.80
2017-12-16T13:15:30.329Z,7.00
2017-12-16T13:17:58.194Z,8.67
2017-12-16T13:20:26.076Z,9.17
2017-12-16T13:22:54.094Z,10.67
2017-12-16T13:25:21.998Z,10.77
2017-12-16T13:27:49.872Z,10.43
2017-12-16T13:30:17.689Z,10.87
2017-12-16T13:32:45.602Z,11.60
2017-12-16T13:35:13.385Z,17.70
2017-12-16T13:37:41.146Z,12.97
2017-12-16T13:40:09.052Z,13.27
2017-12-16T13:42:37.007Z,10.87
2017-12-16T13:45:05.019Z,11.63
2017-12-16T13:47:32.864Z,12.97
2017-12-16T13:50:00.669Z,11.17
2017-12-16T13:52:28.440Z,11.70
2017-12-16T13:54:56.268Z,13.17
2017-12-16T13:57:24.038Z,13.93
2017-12-16T13:59:51.861Z,19.33
2017-12-16T14:02:19.758Z,14.83
2017-12-16T14:04:48.299Z,15.37
2017-12-16T14:07:16.954Z,15.17
2017-12-16T14:09:44.821Z,13.67
2017-12-16T14:12:12.711Z,13.30
2017-12-16T14:14:41.486Z,14.03
2017-12-16T14:17:09.449Z,12.73
2017-12-16T14:19:37.321Z,12.37
2017-12-16T14:22:05.178Z,12.00
2017-12-16T14:24:33.257Z,11.17
2017-12-16T14:27:01.065Z,10.13
2017-12-16T14:29:29.042Z,12.87
2017-12-16T14:31:57.158Z,10.13
2017-12-16T14:34:25.023Z,11.70
2017-12-16T14:36:53.104Z,7.73
2017-12-16T14:39:20.960Z,8.23
2017-12-16T14:41:48.927Z,8.70
2017-12-16T14:44:16.794Z,7.50
2017-12-16T14:46:44.608Z,7.33
2017-12-16T14:49:12.549Z,11.50
2017-12-16T14:51:40.390Z,7.43
2017-12-16T14:54:08.463Z,8.00
2017-12-16T14:56:36.339Z,7.97
2017-12-16T14:59:05.128Z,11.83
2017-12-16T15:01:33.088Z,12.73
2017-12-16T15:04:00.953Z,17.00
2017-12-16T15:06:28.819Z,18.83
2017-12-16T15:08:56.891Z,18.10
2017-12-16T15:11:24.756Z,20.57
2017-12-16T15:13:52.626Z,21.90
2017-12-16T15:16:20.505Z,26.03
2017-12-16T15:18:49.186Z,19.40
2017-12-16T15:21:17.156Z,23.10
2017-12-16T15:23:45.228Z,21.03
2017-12-16T15:26:14.381Z,19.80
2017-12-16T15:28:42.243Z,17.23
2017-12-16T15:31:10.093Z,18.83
2017-12-16T15:33:37.912Z,19.00
2017-12-16T15:36:05.874Z,19.10
2017-12-16T15:38:34.446Z,20.10
2017-12-16T15:41:03.812Z,17.40
2017-12-16T15:43:31.691Z,18.20
2017-12-16T15:45:59.482Z,18.60
2017-12-16T15:48:27.374Z,21.90
2017-12-16T15:50:55.152Z,18.67
2017-12-16T15:53:23.717Z,22.50
2017-12-16T15:55:51.886Z,18.90
2017-12-16T15:58:19.682Z,19.47
2017-12-16T16:00:48.433Z,16.17
2017-12-16T16:03:16.295Z,16.40
2017-12-16T16:05:44.195Z,17.53
2017-12-16T16:08:12.790Z,17.07
2017-12-16T16:10:41.411Z,16.60
2017-12-16T16:13:09.306Z,15.73
2017-12-16T16:15:37.090Z,16.70
2017-12-16T16:18:04.940Z,18.93
2017-12-16T16:20:32.887Z,16.43
2017-12-16T16:23:00.690Z,19.27
2017-12-16T16:25:28.542Z,17.63
2017-12-16T16:27:56.570Z,21.90
2017-12-16T16:30:24.325Z,15.47
2017-12-16T16:32:52.089Z,17.27
2017-12-16T16:35:19.982Z,17.07
2017-12-16T16:37:47.922Z,16.47
2017-12-16T16:40:15.747Z,20.37
2017-12-16T16:42:43.550Z,18.17
2017-12-16T16:45:11.419Z,25.80
2017-12-16T16:47:39.872Z,26.33
2017-12-16T16:50:08.496Z,27.23
2017-12-16T16:52:36.344Z,26.40
2017-12-16T16:55:04.175Z,20.87
2017-12-16T16:57:32.059Z,22.50
2017-12-16T17:00:00.654Z,24.43
2017-12-16T17:02:29.195Z,26.40
2017-12-16T17:04:57.062Z,25.47
2017-12-16T17:07:24.921Z,23.47
2017-12-16T17:09:52.992Z,23.03
2017-12-16T17:12:20.816Z,25.13
2017-12-16T17:14:48.660Z,25.07
2017-12-16T17:17:17.239Z,26.50
2017-12-16T17:19:45.860Z,24.57
2017-12-16T17:22:13.633Z,22.70
2017-12-16T17:24:41.633Z,22.40
2017-12-16T17:27:09.422Z,26.50
2017-12-16T17:29:38.024Z,23.87
2017-12-16T17:32:05.903Z,25.57
2017-12-16T17:34:33.769Z,26.47
2017-12-16T17:37:01.561Z,23.37
2017-12-16T17:39:29.470Z,22.40
2017-12-16T17:41:57.277Z,29.10
2017-12-16T17:44:25.092Z,24.57
2017-12-16T17:46:53.720Z,28.17
2017-12-16T17:49:21.491Z,27.33
2017-12-16T17:51:49.338Z,27.80
2017-12-16T17:54:17.231Z,31.60
2017-12-16T17:56:45.012Z,26.83
2017-12-16T17:59:12.778Z,25.83
2017-12-16T18:01:40.716Z,30.60
2017-12-16T18:04:08.475Z,35.20
2017-12-16T18:06:36.308Z,27.37
2017-12-16T18:09:05.052Z,28.77
2017-12-16T18:11:32.820Z,26.83
2017-12-16T18:14:00.585Z,30.13
2017-12-16T18:16:28.396Z,29.47
2017-12-16T18:18:57.048Z,26.33
2017-12-16T18:21:24.907Z,25.30
2017-12-16T18:23:52.744Z,27.17
2017-12-16T18:26:20.544Z,28.77
2017-12-16T18:28:48.377Z,29.10
2017-12-16T18:31:16.144Z,28.27
2017-12-16T18:33:43.941Z,26.27
2017-12-16T18:36:11.753Z,29.30
2017-12-16T18:38:39.548Z,31.10
2017-12-16T18:41:07.336Z,30.80
2017-12-16T18:43:35.195Z,30.47
2017-12-16T18:46:03.006Z,33.27
2017-12-16T18:48:30.771Z,29.87
2017-12-16T18:50:58.637Z,30.80
2017-12-16T18:53:26.507Z,26.60
2017-12-16T18:55:54.392Z,26.90
2017-12-16T18:58:22.162Z,32.03
2017-12-16T19:00:50.106Z,29.37
2017-12-16T19:03:17.918Z,29.73
2017-12-16T19:05:45.774Z,31.57
2017-12-16T19:08:13.556Z,34.70
2017-12-16T19:10:41.323Z,31.40
2017-12-16T19:13:09.136Z,34.63
2017-12-16T19:15:36.981Z,35.13
2017-12-16T19:18:05.625Z,34.40
2017-12-16T19:20:33.517Z,32.83
2017-12-16T19:23:02.110Z,29.60
2017-12-16T19:25:30.728Z,27.57
2017-12-16T19:27:58.742Z,32.90
2017-12-16T19:30:26.491Z,33.47
2017-12-16T19:32:55.144Z,33.13
2017-12-16T19:35:22.917Z,32.03
2017-12-16T19:37:50.715Z,30.13
2017-12-16T19:40:18.593Z,38.73
2017-12-16T19:42:47.255Z,34.83
2017-12-16T19:45:15.115Z,34.63
2017-12-16T19:47:48.732Z,29.70
2017-12-16T19:50:16.516Z,35.50
2017-12-16T19:52:44.312Z,36.40
2017-12-16T19:55:12.083Z,31.83
2017-12-16T19:57:39.919Z,32.63
2017-12-16T20:00:08.574Z,34.93
2017-12-16T20:02:36.352Z,35.27
2017-12-16T20:05:04.131Z,33.63
2017-12-16T20:07:32.830Z,33.03
2017-12-16T20:10:01.386Z,33.50
2017-12-16T20:12:29.335Z,36.67
2017-12-16T20:14:57.144Z,34.13
2017-12-16T20:17:25.763Z,29.20
2017-12-16T20:19:53.694Z,27.10
2017-12-16T20:22:22.254Z,30.20
2017-12-16T20:24:50.136Z,26.90
2017-12-16T20:27:18.875Z,30.23
2017-12-16T20:29:46.675Z,31.53
2017-12-16T20:32:14.517Z,27.17
2017-12-16T20:34:42.454Z,29.40
2017-12-16T20:37:10.247Z,31.33
2017-12-16T20:39:39.279Z,26.93
2017-12-16T20:42:07.835Z,30.63
2017-12-16T20:44:35.654Z,26.87
2017-12-16T20:47:03.599Z,24.97
2017-12-16T20:49:32.222Z,26.63
2017-12-16T20:52:00.130Z,20.93
2017-12-16T20:54:27.920Z,23.53
2017-12-16T20:56:56.514Z,23.83
2017-12-16T20:59:24.335Z,35.73
2017-12-16T21:01:52.203Z,24.20
2017-12-16T21:04:20.028Z,25.20
2017-12-16T21:06:47.937Z,29.10
2017-12-16T21:09:15.709Z,26.77
2017-12-16T21:11:43.490Z,25.10
2017-12-16T21:14:12.090Z,28.27
2017-12-16T21:16:39.859Z,24.67
2017-12-16T21:19:07.680Z,26.80
2017-12-16T21:21:35.738Z,31.67
2017-12-16T21:24:03.621Z,26.37
2017-12-16T21:26:31.581Z,25.50
2017-12-16T21:28:59.442Z,29.30
2017-12-16T21:31:27.324Z,25.50
2017-12-16T21:33:55.181Z,23.37
2017-12-16T21:36:23.058Z,22.13
2017-12-16T21:38:51.918Z,26.33
2017-12-16T21:41:23.699Z,26.90
2017-12-16T21:43:55.159Z,23.73
2017-12-16T21:46:26.015Z,27.00
2017-12-16T21:48:54.147Z,25.93
2017-12-16T21:51:22.023Z,25.53
2017-12-16T21:53:49.880Z,23.83
2017-12-16T21:56:17.755Z,24.50
2017-12-16T21:58:45.826Z,24.60
2017-12-16T22:01:13.686Z,24.27
2017-12-16T22:03:41.558Z,27.33
2017-12-16T22:06:11.627Z,25.90
2017-12-16T22:08:39.538Z,24.40
2017-12-16T22:11:07.418Z,23.40
2017-12-16T22:13:35.576Z,25.70
2017-12-16T22:16:04.589Z,22.53
2017-12-16T22:18:33.254Z,27.53
2017-12-16T22:21:01.186Z,23.80
2017-12-16T22:23:29.102Z,22.03
2017-12-16T22:25:57.783Z,21.43
2017-12-16T22:28:25.746Z,22.93
2017-12-16T22:30:53.709Z,24.73
2017-12-16T22:33:21.886Z,21.77
2017-12-16T22:35:49.753Z,25.90
2017-12-16T22:38:17.617Z,22.77
2017-12-16T22:40:46.258Z,20.50
2017-12-16T22:43:14.181Z,22.50
2017-12-16T22:45:42.860Z,26.37
2017-12-16T22:48:10.938Z,22.87
2017-12-16T22:50:40.130Z,25.87
2017-12-16T22:53:08.311Z,20.20
2017-12-16T22:55:36.999Z,23.63
2017-12-16T22:58:04.954Z,26.23
2017-12-16T23:00:33.038Z,24.77
2017-12-16T23:03:00.890Z,21.30
2017-12-16T23:05:28.965Z,20.50
2017-12-16T23:07:57.141Z,22.30
2017-12-16T23:10:25.106Z,24.63
2017-12-16T23:12:53.276Z,21.80
2017-12-16T23:15:21.577Z,20.90
2017-12-16T23:17:50.557Z,21.67
2017-12-16T23:20:18.516Z,25.00
2017-12-16T23:22:46.493Z,22.73
2017-12-16T23:25:14.454Z,24.47
2017-12-16T23:27:42.496Z,25.20
2017-12-16T23:30:10.274Z,24.60
2017-12-16T23:32:38.107Z,23.40
2017-12-16T23:35:06.779Z,20.83
2017-12-16T23:37:34.625Z,23.00
2017-12-16T23:40:02.580Z,21.47
2017-12-16T23:42:30.445Z,22.23
2017-12-16T23:44:58.235Z,25.30
2017-12-16T23:47:26.198Z,25.37
2017-12-16T23:49:54.122Z,25.50
2017-12-16T23:52:22.851Z,22.30
2017-12-16T23:54:50.790Z,27.40
2017-12-16T23:57:18.596Z,30.20
2017-12-16T23:59:46.517Z,25.30
